Terminal Aerodrome Forecast
Issued by NWS Twin Cities, MN

Home | Current Version | Previous Version | Text Only | Print | Product List | Glossary On
Versions: 1 2 3 4 5 6 7 8 9 10 11 12 13 14 15 16 17
400
FTUS43 KMPX 061732
TAFSTC
TAF
KSTC 061732Z 0618/0718 19012KT P6SM SCT050 OVC090
     FM070200 23014KT P6SM VCSH OVC050 WS020/28040KT
     FM070900 27016G24KT 6SM BLSN BKN020 OVC040=

USA.gov is the U.S. government's official web portal to all federal, state and local government web resources and services.